sensor_id;sensor_type;location;lat;lon;timestamp;P1;durP1;ratioP1;P2;durP2;ratioP2
36303;SDS011;22335;49.800;8.596;2022-12-08T00:05:55;23.15;;;20.05;;
36303;SDS011;22335;49.800;8.596;2022-12-08T00:12:56;24.10;;;20.60;;
36303;SDS011;22335;49.800;8.596;2022-12-08T00:19:42;25.00;;;20.45;;
36303;SDS011;22335;49.800;8.596;2022-12-08T00:26:29;26.67;;;20.75;;
36303;SDS011;22335;49.800;8.596;2022-12-08T00:33:17;22.80;;;18.83;;
36303;SDS011;22335;49.800;8.596;2022-12-08T00:40:03;24.58;;;20.48;;
36303;SDS011;22335;49.800;8.596;2022-12-08T00:46:51;26.38;;;20.67;;
36303;SDS011;22335;49.800;8.596;2022-12-08T00:53:39;25.02;;;20.05;;
36303;SDS011;22335;49.800;8.596;2022-12-08T01:00:24;22.90;;;19.58;;
36303;SDS011;22335;49.800;8.596;2022-12-08T01:07:10;26.48;;;19.67;;
36303;SDS011;22335;49.800;8.596;2022-12-08T01:13:58;22.52;;;19.80;;
36303;SDS011;22335;49.800;8.596;2022-12-08T01:20:43;22.48;;;19.63;;
36303;SDS011;22335;49.800;8.596;2022-12-08T01:27:29;23.83;;;20.52;;
36303;SDS011;22335;49.800;8.596;2022-12-08T01:34:17;24.15;;;19.75;;
36303;SDS011;22335;49.800;8.596;2022-12-08T01:41:02;25.17;;;20.45;;
36303;SDS011;22335;49.800;8.596;2022-12-08T01:47:48;23.83;;;19.15;;
36303;SDS011;22335;49.800;8.596;2022-12-08T01:54:40;24.08;;;19.67;;
36303;SDS011;22335;49.800;8.596;2022-12-08T02:01:30;22.02;;;19.48;;
36303;SDS011;22335;49.800;8.596;2022-12-08T02:08:16;23.70;;;20.02;;
36303;SDS011;22335;49.800;8.596;2022-12-08T02:15:05;24.00;;;19.98;;
36303;SDS011;22335;49.800;8.596;2022-12-08T02:21:53;24.65;;;19.55;;
36303;SDS011;22335;49.800;8.596;2022-12-08T02:28:50;24.52;;;19.80;;
36303;SDS011;22335;49.800;8.596;2022-12-08T02:36:19;24.30;;;20.15;;
36303;SDS011;22335;49.800;8.596;2022-12-08T02:43:11;23.65;;;19.80;;
36303;SDS011;22335;49.800;8.596;2022-12-08T02:50:01;24.27;;;20.52;;
36303;SDS011;22335;49.800;8.596;2022-12-08T02:57:02;25.80;;;20.20;;
36303;SDS011;22335;49.800;8.596;2022-12-08T03:11:00;26.10;;;20.70;;
36303;SDS011;22335;49.800;8.596;2022-12-08T03:17:55;23.52;;;19.33;;
36303;SDS011;22335;49.800;8.596;2022-12-08T03:24:43;24.90;;;20.63;;
36303;SDS011;22335;49.800;8.596;2022-12-08T03:31:31;23.80;;;19.55;;
36303;SDS011;22335;49.800;8.596;2022-12-08T03:38:25;22.65;;;19.60;;
36303;SDS011;22335;49.800;8.596;2022-12-08T04:05:55;27.08;;;19.23;;
36303;SDS011;22335;49.800;8.596;2022-12-08T04:12:41;22.98;;;19.17;;
36303;SDS011;22335;49.800;8.596;2022-12-08T04:19:26;21.67;;;19.42;;
36303;SDS011;22335;49.800;8.596;2022-12-08T04:26:15;21.77;;;18.92;;
36303;SDS011;22335;49.800;8.596;2022-12-08T04:33:01;21.17;;;18.70;;
36303;SDS011;22335;49.800;8.596;2022-12-08T04:39:46;24.75;;;17.80;;
36303;SDS011;22335;49.800;8.596;2022-12-08T04:46:35;21.05;;;18.45;;
36303;SDS011;22335;49.800;8.596;2022-12-08T04:53:24;22.00;;;17.60;;
36303;SDS011;22335;49.800;8.596;2022-12-08T05:00:10;21.63;;;18.00;;
36303;SDS011;22335;49.800;8.596;2022-12-08T05:06:59;21.92;;;19.08;;
36303;SDS011;22335;49.800;8.596;2022-12-08T05:13:45;21.92;;;18.13;;
36303;SDS011;22335;49.800;8.596;2022-12-08T05:20:30;22.42;;;17.90;;
36303;SDS011;22335;49.800;8.596;2022-12-08T05:27:18;23.80;;;19.13;;
36303;SDS011;22335;49.800;8.596;2022-12-08T05:34:04;23.08;;;19.05;;
36303;SDS011;22335;49.800;8.596;2022-12-08T05:40:49;23.30;;;19.52;;
36303;SDS011;22335;49.800;8.596;2022-12-08T05:47:37;22.85;;;19.15;;
36303;SDS011;22335;49.800;8.596;2022-12-08T05:54:23;25.83;;;18.92;;
36303;SDS011;22335;49.800;8.596;2022-12-08T06:01:16;25.15;;;20.00;;
36303;SDS011;22335;49.800;8.596;2022-12-08T06:08:10;24.73;;;20.00;;
36303;SDS011;22335;49.800;8.596;2022-12-08T06:14:57;22.65;;;19.17;;
36303;SDS011;22335;49.800;8.596;2022-12-08T06:21:43;23.05;;;18.23;;
36303;SDS011;22335;49.800;8.596;2022-12-08T06:28:31;26.35;;;19.88;;
36303;SDS011;22335;49.800;8.596;2022-12-08T06:35:17;23.10;;;19.05;;
36303;SDS011;22335;49.800;8.596;2022-12-08T06:42:03;24.98;;;18.90;;
36303;SDS011;22335;49.800;8.596;2022-12-08T06:49:03;23.55;;;18.48;;
36303;SDS011;22335;49.800;8.596;2022-12-08T06:55:50;22.58;;;19.10;;
36303;SDS011;22335;49.800;8.596;2022-12-08T07:02:40;23.50;;;18.85;;
36303;SDS011;22335;49.800;8.596;2022-12-08T07:09:29;21.17;;;18.33;;
36303;SDS011;22335;49.800;8.596;2022-12-08T07:16:14;20.23;;;18.08;;
36303;SDS011;22335;49.800;8.596;2022-12-08T07:23:01;20.70;;;18.15;;
36303;SDS011;22335;49.800;8.596;2022-12-08T07:29:50;20.55;;;18.35;;
36303;SDS011;22335;49.800;8.596;2022-12-08T07:36:36;24.83;;;18.35;;
36303;SDS011;22335;49.800;8.596;2022-12-08T07:43:22;22.10;;;18.70;;
36303;SDS011;22335;49.800;8.596;2022-12-08T07:50:10;24.27;;;18.37;;
36303;SDS011;22335;49.800;8.596;2022-12-08T07:56:56;21.83;;;18.17;;
36303;SDS011;22335;49.800;8.596;2022-12-08T08:03:44;20.10;;;17.95;;
36303;SDS011;22335;49.800;8.596;2022-12-08T08:10:32;22.85;;;17.98;;
36303;SDS011;22335;49.800;8.596;2022-12-08T08:17:17;24.02;;;17.67;;
36303;SDS011;22335;49.800;8.596;2022-12-08T08:24:03;19.67;;;17.27;;
36303;SDS011;22335;49.800;8.596;2022-12-08T08:30:52;18.08;;;16.17;;
36303;SDS011;22335;49.800;8.596;2022-12-08T08:37:37;19.55;;;17.45;;
36303;SDS011;22335;49.800;8.596;2022-12-08T08:44:29;21.95;;;17.77;;
36303;SDS011;22335;49.800;8.596;2022-12-08T08:51:17;22.30;;;16.90;;
36303;SDS011;22335;49.800;8.596;2022-12-08T08:58:03;20.80;;;17.85;;
36303;SDS011;22335;49.800;8.596;2022-12-08T09:04:48;21.98;;;17.13;;
36303;SDS011;22335;49.800;8.596;2022-12-08T09:11:36;21.85;;;17.77;;
36303;SDS011;22335;49.800;8.596;2022-12-08T09:18:22;23.63;;;16.83;;
36303;SDS011;22335;49.800;8.596;2022-12-08T09:25:08;20.90;;;16.95;;
36303;SDS011;22335;49.800;8.596;2022-12-08T09:31:56;20.23;;;17.10;;
36303;SDS011;22335;49.800;8.596;2022-12-08T09:38:41;21.15;;;17.15;;
36303;SDS011;22335;49.800;8.596;2022-12-08T09:45:28;28.48;;;18.02;;
36303;SDS011;22335;49.800;8.596;2022-12-08T09:52:23;21.65;;;17.88;;
36303;SDS011;22335;49.800;8.596;2022-12-08T09:59:18;23.33;;;18.52;;
36303;SDS011;22335;49.800;8.596;2022-12-08T10:06:10;20.33;;;17.88;;
36303;SDS011;22335;49.800;8.596;2022-12-08T10:13:10;21.35;;;17.55;;
36303;SDS011;22335;49.800;8.596;2022-12-08T10:20:08;24.60;;;17.92;;
36303;SDS011;22335;49.800;8.596;2022-12-08T10:27:00;24.60;;;16.83;;
36303;SDS011;22335;49.800;8.596;2022-12-08T10:40:39;21.67;;;17.30;;
36303;SDS011;22335;49.800;8.596;2022-12-08T10:47:27;23.73;;;18.33;;
36303;SDS011;22335;49.800;8.596;2022-12-08T10:54:26;21.00;;;16.85;;
36303;SDS011;22335;49.800;8.596;2022-12-08T11:01:19;19.92;;;17.13;;
36303;SDS011;22335;49.800;8.596;2022-12-08T11:08:09;21.42;;;16.73;;
36303;SDS011;22335;49.800;8.596;2022-12-08T11:14:59;20.33;;;16.33;;
36303;SDS011;22335;49.800;8.596;2022-12-08T11:21:46;22.05;;;16.83;;
36303;SDS011;22335;49.800;8.596;2022-12-08T11:28:32;21.85;;;15.88;;
36303;SDS011;22335;49.800;8.596;2022-12-08T11:35:21;23.15;;;16.83;;
36303;SDS011;22335;49.800;8.596;2022-12-08T11:42:12;19.75;;;16.60;;
36303;SDS011;22335;49.800;8.596;2022-12-08T11:49:03;20.38;;;16.40;;
36303;SDS011;22335;49.800;8.596;2022-12-08T11:55:59;20.30;;;16.17;;
36303;SDS011;22335;49.800;8.596;2022-12-08T12:02:52;20.20;;;16.30;;
36303;SDS011;22335;49.800;8.596;2022-12-08T12:09:50;22.08;;;15.85;;
36303;SDS011;22335;49.800;8.596;2022-12-08T12:17:17;20.83;;;16.17;;
36303;SDS011;22335;49.800;8.596;2022-12-08T12:24:17;20.90;;;15.68;;
36303;SDS011;22335;49.800;8.596;2022-12-08T12:31:14;18.20;;;15.17;;
36303;SDS011;22335;49.800;8.596;2022-12-08T12:38:06;19.05;;;15.50;;
36303;SDS011;22335;49.800;8.596;2022-12-08T12:45:22;15.35;;;13.75;;
36303;SDS011;22335;49.800;8.596;2022-12-08T12:59:44;14.45;;;12.75;;
36303;SDS011;22335;49.800;8.596;2022-12-08T13:06:46;12.75;;;11.65;;
36303;SDS011;22335;49.800;8.596;2022-12-08T13:13:34;13.40;;;12.20;;
36303;SDS011;22335;49.800;8.596;2022-12-08T13:20:23;12.68;;;11.48;;
36303;SDS011;22335;49.800;8.596;2022-12-08T13:34:27;15.32;;;13.00;;
36303;SDS011;22335;49.800;8.596;2022-12-08T13:41:27;13.70;;;12.25;;
36303;SDS011;22335;49.800;8.596;2022-12-08T13:48:23;13.88;;;12.57;;
36303;SDS011;22335;49.800;8.596;2022-12-08T13:55:37;17.10;;;14.55;;
36303;SDS011;22335;49.800;8.596;2022-12-08T14:02:50;17.90;;;14.20;;
36303;SDS011;22335;49.800;8.596;2022-12-08T14:09:41;18.05;;;14.20;;
36303;SDS011;22335;49.800;8.596;2022-12-08T14:16:28;17.60;;;14.63;;
36303;SDS011;22335;49.800;8.596;2022-12-08T14:23:23;16.60;;;14.60;;
36303;SDS011;22335;49.800;8.596;2022-12-08T14:30:12;16.58;;;14.88;;
36303;SDS011;22335;49.800;8.596;2022-12-08T14:37:06;18.00;;;15.05;;
36303;SDS011;22335;49.800;8.596;2022-12-08T14:43:59;16.83;;;15.13;;
36303;SDS011;22335;49.800;8.596;2022-12-08T14:50:53;17.20;;;15.10;;
36303;SDS011;22335;49.800;8.596;2022-12-08T14:57:48;15.57;;;13.98;;
36303;SDS011;22335;49.800;8.596;2022-12-08T15:04:36;15.68;;;14.00;;
36303;SDS011;22335;49.800;8.596;2022-12-08T15:11:31;17.27;;;13.63;;
36303;SDS011;22335;49.800;8.596;2022-12-08T15:18:20;15.32;;;13.82;;
36303;SDS011;22335;49.800;8.596;2022-12-08T15:25:17;15.00;;;13.50;;
36303;SDS011;22335;49.800;8.596;2022-12-08T15:32:04;15.48;;;13.15;;
36303;SDS011;22335;49.800;8.596;2022-12-08T15:38:52;18.65;;;15.48;;
36303;SDS011;22335;49.800;8.596;2022-12-08T15:45:40;16.88;;;14.70;;
36303;SDS011;22335;49.800;8.596;2022-12-08T15:52:39;19.33;;;14.57;;
36303;SDS011;22335;49.800;8.596;2022-12-08T15:59:24;17.67;;;15.77;;
36303;SDS011;22335;49.800;8.596;2022-12-08T16:06:14;16.80;;;15.10;;
36303;SDS011;22335;49.800;8.596;2022-12-08T16:13:23;17.88;;;15.98;;
36303;SDS011;22335;49.800;8.596;2022-12-08T16:20:38;19.80;;;15.20;;
36303;SDS011;22335;49.800;8.596;2022-12-08T16:27:47;17.17;;;15.48;;
36303;SDS011;22335;49.800;8.596;2022-12-08T16:34:53;16.67;;;15.10;;
36303;SDS011;22335;49.800;8.596;2022-12-08T16:41:39;17.70;;;15.90;;
36303;SDS011;22335;49.800;8.596;2022-12-08T16:48:40;18.13;;;16.33;;
36303;SDS011;22335;49.800;8.596;2022-12-08T16:55:25;18.33;;;15.90;;
36303;SDS011;22335;49.800;8.596;2022-12-08T17:02:11;17.93;;;16.03;;
36303;SDS011;22335;49.800;8.596;2022-12-08T17:08:59;18.95;;;15.70;;
36303;SDS011;22335;49.800;8.596;2022-12-08T17:15:45;19.65;;;17.45;;
36303;SDS011;22335;49.800;8.596;2022-12-08T17:22:30;20.05;;;16.08;;
36303;SDS011;22335;49.800;8.596;2022-12-08T17:29:19;18.77;;;16.42;;
36303;SDS011;22335;49.800;8.596;2022-12-08T17:36:06;19.48;;;16.48;;
36303;SDS011;22335;49.800;8.596;2022-12-08T17:42:55;22.45;;;16.70;;
36303;SDS011;22335;49.800;8.596;2022-12-08T17:49:43;19.02;;;16.92;;
36303;SDS011;22335;49.800;8.596;2022-12-08T17:56:29;18.38;;;15.93;;
36303;SDS011;22335;49.800;8.596;2022-12-08T18:03:15;19.52;;;17.38;;
36303;SDS011;22335;49.800;8.596;2022-12-08T18:10:04;17.53;;;15.57;;
36303;SDS011;22335;49.800;8.596;2022-12-08T18:16:51;17.83;;;15.50;;
36303;SDS011;22335;49.800;8.596;2022-12-08T18:23:38;22.53;;;16.27;;
36303;SDS011;22335;49.800;8.596;2022-12-08T18:30:27;18.98;;;16.05;;
36303;SDS011;22335;49.800;8.596;2022-12-08T18:37:13;18.58;;;16.55;;
36303;SDS011;22335;49.800;8.596;2022-12-08T18:43:59;19.92;;;17.65;;
36303;SDS011;22335;49.800;8.596;2022-12-08T18:50:47;20.92;;;17.20;;
36303;SDS011;22335;49.800;8.596;2022-12-08T18:57:33;19.73;;;17.65;;
36303;SDS011;22335;49.800;8.596;2022-12-08T19:04:19;24.50;;;17.48;;
36303;SDS011;22335;49.800;8.596;2022-12-08T19:11:18;22.52;;;18.15;;
36303;SDS011;22335;49.800;8.596;2022-12-08T19:18:04;22.48;;;17.63;;
36303;SDS011;22335;49.800;8.596;2022-12-08T19:24:50;21.92;;;17.77;;
36303;SDS011;22335;49.800;8.596;2022-12-08T19:31:38;19.83;;;16.55;;
36303;SDS011;22335;49.800;8.596;2022-12-08T19:38:23;20.15;;;18.00;;
36303;SDS011;22335;49.800;8.596;2022-12-08T19:45:10;21.15;;;17.80;;
36303;SDS011;22335;49.800;8.596;2022-12-08T19:52:01;23.02;;;19.17;;
36303;SDS011;22335;49.800;8.596;2022-12-08T19:58:47;22.73;;;18.60;;
36303;SDS011;22335;49.800;8.596;2022-12-08T20:05:32;22.55;;;17.83;;
36303;SDS011;22335;49.800;8.596;2022-12-08T20:12:22;24.00;;;18.67;;
36303;SDS011;22335;49.800;8.596;2022-12-08T20:19:08;20.98;;;17.92;;
36303;SDS011;22335;49.800;8.596;2022-12-08T20:25:53;23.67;;;18.67;;
36303;SDS011;22335;49.800;8.596;2022-12-08T20:32:42;20.23;;;17.75;;
36303;SDS011;22335;49.800;8.596;2022-12-08T20:39:27;24.05;;;17.92;;
36303;SDS011;22335;49.800;8.596;2022-12-08T20:46:15;20.02;;;17.33;;
36303;SDS011;22335;49.800;8.596;2022-12-08T20:53:05;20.20;;;17.98;;
36303;SDS011;22335;49.800;8.596;2022-12-08T20:59:51;19.98;;;17.17;;
36303;SDS011;22335;49.800;8.596;2022-12-08T21:06:37;21.45;;;19.05;;
36303;SDS011;22335;49.800;8.596;2022-12-08T21:13:25;24.27;;;17.65;;
36303;SDS011;22335;49.800;8.596;2022-12-08T21:20:11;24.65;;;19.40;;
36303;SDS011;22335;49.800;8.596;2022-12-08T21:26:56;27.20;;;20.05;;
36303;SDS011;22335;49.800;8.596;2022-12-08T21:33:45;23.67;;;19.98;;
36303;SDS011;22335;49.800;8.596;2022-12-08T21:40:31;24.65;;;19.20;;
36303;SDS011;22335;49.800;8.596;2022-12-08T21:47:16;24.23;;;18.48;;
36303;SDS011;22335;49.800;8.596;2022-12-08T21:54:05;19.40;;;17.38;;
36303;SDS011;22335;49.800;8.596;2022-12-08T22:01:03;20.97;;;17.27;;
36303;SDS011;22335;49.800;8.596;2022-12-08T22:07:49;20.30;;;17.58;;
36303;SDS011;22335;49.800;8.596;2022-12-08T22:14:38;22.88;;;17.65;;
36303;SDS011;22335;49.800;8.596;2022-12-08T22:21:23;19.65;;;17.55;;
36303;SDS011;22335;49.800;8.596;2022-12-08T22:28:09;20.60;;;16.58;;
36303;SDS011;22335;49.800;8.596;2022-12-08T22:34:57;22.88;;;16.75;;
36303;SDS011;22335;49.800;8.596;2022-12-08T22:41:43;21.27;;;17.38;;
36303;SDS011;22335;49.800;8.596;2022-12-08T22:48:28;18.70;;;16.65;;
36303;SDS011;22335;49.800;8.596;2022-12-08T22:55:16;20.30;;;17.10;;
36303;SDS011;22335;49.800;8.596;2022-12-08T23:02:02;21.85;;;17.02;;
36303;SDS011;22335;49.800;8.596;2022-12-08T23:08:47;19.50;;;17.40;;
36303;SDS011;22335;49.800;8.596;2022-12-08T23:15:36;17.58;;;15.82;;
36303;SDS011;22335;49.800;8.596;2022-12-08T23:22:22;20.08;;;16.25;;
36303;SDS011;22335;49.800;8.596;2022-12-08T23:29:07;19.60;;;16.08;;
36303;SDS011;22335;49.800;8.596;2022-12-08T23:35:58;17.65;;;15.82;;
36303;SDS011;22335;49.800;8.596;2022-12-08T23:42:44;19.08;;;15.30;;
36303;SDS011;22335;49.800;8.596;2022-12-08T23:49:30;17.30;;;15.68;;
36303;SDS011;22335;49.800;8.596;2022-12-08T23:56:18;18.00;;;16.10;;
